PAVL

Details ICAO PAVL (KVL)
Name KIVALINA
Region USA (Alaska)
Timezone America/Nome (UTC-9.0)
Plans Departing 3
Arriving 2
Stats Elevation 13 ft / 4 m (AMSL)
Location 67.736152° -164.563497°
Runways 1
Magnetic Variation 10.601° E
Sunrise Unknown / Unknown
Sunset Unknown / Unknown
Advertisement - Login to hide

Runways

ID Width Length Bearing (true) Bearing (mag) Surface Threshold Offset Overrun Length
12 59 ft / 18 m 3,003 ft / 915 m 137.12° 126.52° Gravel 0 ft / 0 m 0 ft / 0 m
30 59 ft / 18 m 3,003 ft / 915 m 317.13° 306.53° Gravel 0 ft / 0 m 0 ft / 0 m

Map

Weather


0- 5 10 15 20 25 30 35+ Temperature / ° C

Clouds and Precipitation
Forecast for 2017-12-15 06:00 UTC. Updated an hour ago

Ground ~20,000 ft ~40,000 ft Winds

METAR

PAVL 150153Z AUTO 17017KT 10SM SCT043 M03/M04 A2950 RMK AO2 SLP989 T10281044 TSNO $

TAF

Not found

Frequencies

Recorded 135.80 MHz ASOS
Approach 119.20 MHz ANCHORAGE CNTR
Unicom 122.80 MHz CTAF/UNICOM
Warning: Do not use this data for real-world aviation or navigation. No guarantee of current accuracy is given.